createdAt,value
2023-02-06T00:00:16.715Z,65.25
2023-02-06T00:03:03.106Z,65.40
2023-02-06T00:05:29.271Z,65.47
2023-02-06T00:07:55.330Z,65.46
2023-02-06T00:10:23.857Z,65.35
2023-02-06T00:12:49.887Z,65.18
2023-02-06T00:15:18.989Z,65.17
2023-02-06T00:17:44.895Z,65.14
2023-02-06T00:20:11.756Z,65.19
2023-02-06T00:22:37.745Z,65.17
2023-02-06T00:25:04.035Z,65.00
2023-02-06T00:27:29.938Z,64.92
2023-02-06T00:29:56.899Z,65.06
2023-02-06T00:32:22.857Z,65.10
2023-02-06T00:34:48.882Z,65.12
2023-02-06T00:37:16.746Z,65.35
2023-02-06T00:39:42.958Z,65.42
2023-02-06T00:42:08.938Z,65.45
2023-02-06T00:44:34.900Z,65.23
2023-02-06T00:47:00.949Z,65.22
2023-02-06T00:49:27.213Z,65.34
2023-02-06T00:51:53.156Z,65.27
2023-02-06T00:54:20.242Z,65.53
2023-02-06T00:56:46.550Z,65.15
2023-02-06T00:59:13.581Z,65.26
2023-02-06T01:01:39.511Z,65.32
2023-02-06T01:04:05.474Z,65.35
2023-02-06T01:06:31.503Z,65.32
2023-02-06T01:08:57.465Z,65.31
2023-02-06T01:11:24.380Z,65.28
2023-02-06T01:13:51.674Z,65.29
2023-02-06T01:16:19.382Z,65.45
2023-02-06T01:18:45.359Z,65.25
2023-02-06T01:21:12.937Z,65.29
2023-02-06T01:23:38.979Z,65.24
2023-02-06T01:26:10.824Z,65.39
2023-02-06T01:28:40.355Z,65.41
2023-02-06T01:31:14.387Z,65.47
2023-02-06T01:33:40.435Z,65.34
2023-02-06T01:36:06.818Z,65.52
2023-02-06T01:38:32.839Z,65.52
2023-02-06T01:40:59.541Z,65.57
2023-02-06T01:43:28.076Z,65.55
2023-02-06T01:45:54.038Z,65.54
2023-02-06T01:48:21.618Z,65.71
2023-02-06T01:50:50.499Z,65.61
2023-02-06T01:53:16.473Z,65.70
2023-02-06T01:55:43.907Z,65.88
2023-02-06T01:58:10.675Z,65.82
2023-02-06T02:00:36.792Z,66.01
2023-02-06T02:03:02.840Z,65.95
2023-02-06T02:05:28.788Z,66.09
2023-02-06T02:08:00.471Z,65.94
2023-02-06T02:10:30.073Z,66.00
2023-02-06T02:12:56.563Z,66.17
2023-02-06T02:15:24.361Z,66.23
2023-02-06T02:18:02.605Z,66.24
2023-02-06T02:20:56.760Z,66.43
2023-02-06T02:23:31.145Z,66.35
2023-02-06T02:26:07.368Z,66.48
2023-02-06T02:28:33.380Z,66.65
2023-02-06T02:31:07.676Z,66.69
2023-02-06T02:33:39.874Z,66.53
2023-02-06T02:36:45.107Z,66.59
2023-02-06T02:39:31.902Z,66.48
2023-02-06T02:42:12.790Z,66.53
2023-02-06T02:45:07.284Z,66.47
2023-02-06T02:47:38.396Z,66.43
2023-02-06T02:50:04.825Z,66.44
2023-02-06T02:52:30.751Z,66.36
2023-02-06T02:54:56.650Z,66.48
2023-02-06T02:57:29.463Z,66.63
2023-02-06T02:59:56.751Z,66.47
2023-02-06T03:02:28.744Z,66.53
2023-02-06T03:05:01.719Z,66.46
2023-02-06T03:07:53.034Z,66.53
2023-02-06T03:10:44.522Z,66.66
2023-02-06T03:13:18.430Z,66.56
2023-02-06T03:16:07.556Z,66.64
2023-02-06T03:18:40.592Z,66.61
2023-02-06T03:21:10.223Z,66.52
2023-02-06T03:23:38.760Z,66.49
2023-02-06T03:26:06.260Z,66.58
2023-02-06T03:28:33.926Z,66.51
2023-02-06T03:31:01.235Z,66.51
2023-02-06T03:33:30.900Z,66.23
2023-02-06T03:35:57.422Z,66.29
2023-02-06T03:38:24.140Z,66.45
2023-02-06T03:40:50.238Z,66.49
2023-02-06T03:43:18.134Z,66.47
2023-02-06T03:45:46.862Z,66.49
2023-02-06T03:48:18.708Z,66.60
2023-02-06T03:50:45.404Z,66.50
2023-02-06T03:53:11.349Z,66.40
2023-02-06T03:55:38.110Z,66.60
2023-02-06T03:58:06.350Z,66.40
2023-02-06T04:00:32.411Z,66.43
2023-02-06T04:02:58.724Z,66.60
2023-02-06T04:05:24.805Z,66.68
2023-02-06T04:07:52.009Z,66.50
2023-02-06T04:10:18.016Z,66.33
2023-02-06T04:12:43.951Z,66.40
2023-02-06T04:15:10.099Z,66.38
2023-02-06T04:17:53.570Z,66.39
2023-02-06T04:20:22.541Z,66.24
2023-02-06T04:22:48.566Z,66.44
2023-02-06T04:25:14.447Z,66.42
2023-02-06T04:27:40.337Z,66.38
2023-02-06T04:30:07.291Z,66.40
2023-02-06T04:32:33.253Z,66.27
2023-02-06T04:34:59.172Z,66.31
2023-02-06T04:37:25.061Z,66.32
2023-02-06T04:39:50.981Z,66.18
2023-02-06T04:42:16.901Z,66.17
2023-02-06T04:44:42.835Z,66.31
2023-02-06T04:47:08.734Z,66.02
2023-02-06T04:49:34.667Z,66.22
2023-02-06T04:52:00.591Z,66.03
2023-02-06T04:54:26.561Z,66.11
2023-02-06T04:56:52.493Z,65.93
2023-02-06T04:59:18.382Z,65.89
2023-02-06T05:01:44.338Z,65.95
2023-02-06T05:04:10.272Z,65.94
2023-02-06T05:06:36.216Z,65.89
2023-02-06T05:09:02.972Z,66.01
2023-02-06T05:11:28.858Z,66.10
2023-02-06T05:13:54.769Z,66.05
2023-02-06T05:16:20.695Z,65.82
2023-02-06T05:18:46.790Z,65.95
2023-02-06T05:21:13.374Z,65.80
2023-02-06T05:23:39.724Z,65.97
2023-02-06T05:26:05.659Z,65.85
2023-02-06T05:28:34.500Z,65.91
2023-02-06T05:31:01.281Z,65.91
2023-02-06T05:33:27.356Z,65.87
2023-02-06T05:35:53.285Z,65.93
2023-02-06T05:38:19.194Z,66.11
2023-02-06T05:40:45.227Z,66.05
2023-02-06T05:43:11.291Z,65.90
2023-02-06T05:45:37.592Z,65.94
2023-02-06T05:48:04.085Z,65.90
2023-02-06T05:50:30.001Z,65.99
2023-02-06T05:52:58.100Z,65.74
2023-02-06T05:55:24.409Z,65.74
2023-02-06T05:57:50.354Z,65.57
2023-02-06T06:00:16.541Z,65.63
2023-02-06T06:02:42.501Z,65.61
2023-02-06T06:05:08.496Z,65.65
2023-02-06T06:07:34.453Z,65.53
2023-02-06T06:10:00.372Z,65.54
2023-02-06T06:12:26.261Z,65.56
2023-02-06T06:14:52.169Z,65.60
2023-02-06T06:17:18.156Z,65.62
2023-02-06T06:19:44.059Z,65.66
2023-02-06T06:22:10.866Z,65.72
2023-02-06T06:24:37.132Z,65.65
2023-02-06T06:27:03.125Z,65.68
2023-02-06T06:29:29.102Z,65.68
2023-02-06T06:31:55.105Z,65.84
2023-02-06T06:34:21.185Z,65.75
2023-02-06T06:36:47.095Z,65.90
2023-02-06T06:39:12.999Z,65.95
2023-02-06T06:41:38.926Z,66.05
2023-02-06T06:44:04.814Z,66.20
2023-02-06T06:46:30.709Z,66.13
2023-02-06T06:48:56.624Z,66.25
2023-02-06T06:51:23.054Z,66.03
2023-02-06T06:53:48.951Z,66.24
2023-02-06T06:56:14.949Z,65.95
2023-02-06T06:58:41.304Z,65.82
2023-02-06T07:01:08.065Z,65.55
2023-02-06T07:03:34.236Z,65.77
2023-02-06T07:06:00.217Z,65.55
2023-02-06T07:08:29.319Z,65.51
2023-02-06T07:10:56.963Z,65.52
2023-02-06T07:13:23.127Z,65.42
2023-02-06T07:15:49.066Z,65.47
2023-02-06T07:18:14.985Z,65.45
2023-02-06T07:20:40.901Z,65.28
2023-02-06T07:23:06.831Z,65.25
2023-02-06T07:25:32.877Z,65.14
2023-02-06T07:27:58.865Z,64.96
2023-02-06T07:30:24.801Z,65.02
2023-02-06T07:32:50.852Z,64.96
2023-02-06T07:35:17.063Z,64.74
2023-02-06T07:37:42.960Z,64.62
2023-02-06T07:40:10.041Z,64.55
2023-02-06T07:42:35.983Z,64.56
2023-02-06T07:45:09.003Z,64.34
2023-02-06T07:47:34.930Z,64.22
2023-02-06T07:50:00.850Z,64.23
2023-02-06T07:52:26.761Z,64.33
2023-02-06T07:54:54.342Z,64.38
2023-02-06T07:57:20.770Z,64.28
2023-02-06T07:59:46.711Z,64.33
2023-02-06T08:02:12.707Z,64.31
2023-02-06T08:04:38.854Z,64.06
2023-02-06T08:07:05.224Z,63.98
2023-02-06T08:09:31.461Z,63.98
2023-02-06T08:11:57.400Z,63.84
2023-02-06T08:14:24.002Z,63.80
2023-02-06T08:16:50.248Z,63.54
2023-02-06T08:19:16.140Z,63.26
2023-02-06T08:21:42.064Z,63.03
2023-02-06T08:24:13.044Z,63.04
2023-02-06T08:26:39.036Z,62.54
2023-02-06T08:29:05.879Z,62.57
2023-02-06T08:31:33.911Z,62.46
2023-02-06T08:33:59.955Z,62.32
2023-02-06T08:36:26.183Z,62.21
2023-02-06T08:38:52.467Z,62.29
2023-02-06T08:41:21.379Z,62.24
2023-02-06T08:43:48.204Z,62.46
2023-02-06T08:46:14.883Z,62.33
2023-02-06T08:48:40.829Z,62.52
2023-02-06T08:51:07.627Z,62.27
2023-02-06T08:53:33.625Z,62.50
2023-02-06T08:56:00.745Z,62.50
2023-02-06T08:58:26.649Z,62.47
2023-02-06T09:00:53.050Z,62.71
2023-02-06T09:03:20.396Z,62.85
2023-02-06T09:05:46.620Z,62.93
2023-02-06T09:08:12.710Z,62.91
2023-02-06T09:10:38.598Z,63.01
2023-02-06T09:13:04.559Z,63.10
2023-02-06T09:15:30.518Z,63.04
2023-02-06T09:17:56.526Z,63.05
2023-02-06T09:20:25.948Z,63.22
2023-02-06T09:22:52.629Z,63.32
2023-02-06T09:25:18.582Z,63.57
2023-02-06T09:27:46.212Z,63.50
2023-02-06T09:30:15.085Z,63.47
2023-02-06T09:32:42.553Z,63.52
2023-02-06T09:35:08.455Z,63.76
2023-02-06T09:37:34.766Z,63.56
2023-02-06T09:40:00.672Z,63.79
2023-02-06T09:42:29.453Z,63.66
2023-02-06T09:45:11.219Z,63.63
2023-02-06T09:47:39.331Z,63.54
2023-02-06T09:50:07.280Z,63.46
2023-02-06T09:53:10.673Z,63.60
2023-02-06T09:55:40.686Z,63.86
2023-02-06T09:58:38.814Z,63.77
2023-02-06T10:01:20.959Z,63.81
2023-02-06T10:04:10.072Z,63.80
2023-02-06T10:06:41.525Z,63.78
2023-02-06T10:09:14.364Z,63.82
2023-02-06T10:11:48.674Z,63.68
2023-02-06T10:14:24.070Z,63.58
2023-02-06T10:17:04.221Z,62.89
2023-02-06T10:19:38.527Z,62.71
2023-02-06T10:22:08.665Z,62.10
2023-02-06T10:24:40.469Z,61.89
2023-02-06T10:27:10.498Z,61.47
2023-02-06T10:29:36.452Z,61.29
2023-02-06T10:32:25.791Z,61.01
2023-02-06T10:35:02.971Z,60.85
2023-02-06T10:37:52.685Z,60.64
2023-02-06T10:40:27.741Z,60.52
2023-02-06T10:43:22.234Z,60.10
2023-02-06T10:46:19.250Z,59.88
2023-02-06T10:49:16.740Z,59.25
2023-02-06T10:51:44.781Z,58.72
2023-02-06T10:54:16.851Z,58.27
2023-02-06T10:56:44.329Z,57.47
2023-02-06T10:59:39.921Z,56.96
2023-02-06T11:02:08.720Z,56.54
2023-02-06T11:04:39.706Z,56.08
2023-02-06T11:07:15.688Z,55.62
2023-02-06T11:09:41.636Z,55.28
2023-02-06T11:12:18.179Z,54.62
2023-02-06T11:14:44.093Z,54.84
2023-02-06T11:17:10.032Z,55.17
2023-02-06T11:19:41.683Z,55.20
2023-02-06T11:22:10.574Z,54.99
2023-02-06T11:24:36.806Z,54.90
2023-02-06T11:27:18.391Z,54.86
2023-02-06T11:29:46.855Z,55.08
2023-02-06T11:32:35.401Z,55.27
2023-02-06T11:35:09.784Z,54.83
2023-02-06T11:37:37.768Z,54.73
2023-02-06T11:40:19.137Z,54.71
2023-02-06T11:42:46.303Z,54.79
2023-02-06T11:45:30.850Z,55.12
2023-02-06T11:47:57.133Z,55.17
2023-02-06T11:50:27.602Z,55.47
2023-02-06T11:53:10.683Z,55.78
2023-02-06T11:55:37.751Z,56.05
2023-02-06T11:58:17.240Z,56.34
2023-02-06T12:00:52.289Z,56.33
2023-02-06T12:03:26.670Z,56.60
2023-02-06T12:05:52.730Z,56.68
2023-02-06T12:08:19.099Z,56.95
2023-02-06T12:10:57.101Z,57.22
2023-02-06T12:13:25.832Z,57.58
2023-02-06T12:15:53.774Z,57.74
2023-02-06T12:18:34.591Z,57.62
2023-02-06T12:21:11.190Z,57.55
2023-02-06T12:23:45.377Z,57.98
2023-02-06T12:26:14.719Z,57.75
2023-02-06T12:28:51.007Z,57.81
2023-02-06T12:31:41.131Z,58.05
2023-02-06T12:34:15.424Z,58.05
2023-02-06T12:37:14.472Z,58.14
2023-02-06T12:39:41.968Z,57.84
2023-02-06T12:42:41.534Z,57.58
2023-02-06T12:45:44.237Z,57.29
2023-02-06T12:48:18.372Z,57.42
2023-02-06T12:51:07.062Z,57.53
2023-02-06T12:53:40.215Z,57.39
2023-02-06T12:56:25.058Z,57.53
2023-02-06T12:59:13.910Z,57.50
2023-02-06T13:02:00.793Z,56.87
2023-02-06T13:04:29.042Z,56.65
2023-02-06T13:07:05.912Z,56.54
2023-02-06T13:09:36.829Z,56.57
2023-02-06T13:12:07.732Z,56.66
2023-02-06T13:14:33.631Z,56.98
2023-02-06T13:17:07.233Z,57.13
2023-02-06T13:19:36.121Z,57.35
2023-02-06T13:22:12.404Z,57.18
2023-02-06T13:24:39.642Z,57.57
2023-02-06T13:27:08.584Z,57.48
2023-02-06T13:29:37.024Z,57.40
2023-02-06T13:32:15.176Z,57.12
2023-02-06T13:34:44.207Z,57.05
2023-02-06T13:37:33.311Z,57.04
2023-02-06T13:40:12.116Z,56.90
2023-02-06T13:42:56.169Z,56.76
2023-02-06T13:45:31.625Z,56.73
2023-02-06T13:48:35.769Z,56.78
2023-02-06T13:51:16.813Z,56.80
2023-02-06T13:54:02.472Z,56.63
2023-02-06T13:57:02.522Z,56.91
2023-02-06T13:59:32.069Z,56.87
2023-02-06T14:02:11.934Z,57.09
2023-02-06T14:04:37.897Z,56.98
2023-02-06T14:07:24.476Z,57.10
2023-02-06T14:09:59.430Z,57.14
2023-02-06T14:12:44.130Z,57.07
2023-02-06T14:15:36.188Z,56.97
2023-02-06T14:18:06.596Z,56.61
2023-02-06T14:20:49.233Z,56.37
2023-02-06T14:23:52.617Z,56.45
2023-02-06T14:26:29.223Z,56.55
2023-02-06T14:29:08.660Z,56.34
2023-02-06T14:31:53.094Z,56.21
2023-02-06T14:34:43.710Z,56.09
2023-02-06T14:37:23.453Z,56.11
2023-02-06T14:39:54.072Z,56.01
2023-02-06T14:42:24.135Z,56.13
2023-02-06T14:44:56.577Z,56.05
2023-02-06T14:47:25.460Z,56.15
2023-02-06T14:49:51.357Z,55.85
2023-02-06T14:52:20.693Z,55.96
2023-02-06T14:54:46.668Z,56.01
2023-02-06T14:57:21.543Z,55.97
2023-02-06T15:00:02.413Z,55.80
2023-02-06T15:02:31.125Z,56.06
2023-02-06T15:04:57.595Z,56.04
2023-02-06T15:07:29.454Z,55.94
2023-02-06T15:10:07.844Z,56.08
2023-02-06T15:12:33.999Z,56.05
2023-02-06T15:15:24.451Z,56.21
2023-02-06T15:18:07.962Z,56.27
2023-02-06T15:20:40.806Z,56.31
2023-02-06T15:23:18.110Z,56.47
2023-02-06T15:26:05.048Z,56.69
2023-02-06T15:28:32.527Z,56.93
2023-02-06T15:30:59.437Z,56.88
2023-02-06T15:33:27.821Z,56.95
2023-02-06T15:35:54.940Z,56.94
2023-02-06T15:38:21.649Z,57.03
2023-02-06T15:40:59.571Z,57.24
2023-02-06T15:43:25.852Z,57.28
2023-02-06T15:45:56.553Z,57.15
2023-02-06T15:48:31.534Z,56.97
2023-02-06T15:51:22.195Z,57.05
2023-02-06T15:53:50.010Z,57.35
2023-02-06T15:56:21.809Z,57.68
2023-02-06T15:58:48.504Z,57.63
2023-02-06T16:01:16.976Z,57.76
2023-02-06T16:03:43.053Z,57.79
2023-02-06T16:06:15.760Z,57.81
2023-02-06T16:08:42.145Z,57.81
2023-02-06T16:11:29.106Z,57.80
2023-02-06T16:13:55.078Z,57.94
2023-02-06T16:16:22.763Z,57.81
2023-02-06T16:18:51.405Z,57.82
2023-02-06T16:21:17.342Z,57.80
2023-02-06T16:23:49.493Z,57.76
2023-02-06T16:26:19.875Z,57.72
2023-02-06T16:29:04.710Z,57.87
2023-02-06T16:31:31.670Z,57.92
2023-02-06T16:34:02.481Z,57.95
2023-02-06T16:36:29.578Z,57.94
2023-02-06T16:39:03.601Z,58.06
2023-02-06T16:41:32.924Z,58.18
2023-02-06T16:43:59.207Z,58.35
2023-02-06T16:46:25.296Z,58.32
2023-02-06T16:48:52.105Z,58.36
2023-02-06T16:51:20.158Z,58.35
2023-02-06T16:53:47.662Z,58.36
2023-02-06T16:56:14.159Z,58.42
2023-02-06T16:58:40.272Z,58.63
2023-02-06T17:01:11.131Z,58.79
2023-02-06T17:03:38.190Z,58.76
2023-02-06T17:06:04.282Z,58.89
2023-02-06T17:08:30.270Z,59.07
2023-02-06T17:10:56.184Z,59.09
2023-02-06T17:13:23.083Z,59.17
2023-02-06T17:15:51.545Z,59.23
2023-02-06T17:18:17.784Z,59.34
2023-02-06T17:20:45.705Z,59.43
2023-02-06T17:23:11.642Z,59.40
2023-02-06T17:25:38.649Z,59.47
2023-02-06T17:28:06.851Z,59.50
2023-02-06T17:30:33.479Z,59.34
2023-02-06T17:32:59.524Z,59.57
2023-02-06T17:35:25.551Z,59.79
2023-02-06T17:37:51.657Z,59.64
2023-02-06T17:40:20.425Z,59.74
2023-02-06T17:42:46.969Z,59.83
2023-02-06T17:45:12.969Z,59.92
2023-02-06T17:47:38.978Z,60.00
2023-02-06T17:50:05.378Z,60.10
2023-02-06T17:52:31.315Z,60.02
2023-02-06T17:54:57.424Z,60.18
2023-02-06T17:57:23.439Z,60.31
2023-02-06T17:59:52.088Z,60.54
2023-02-06T18:02:18.020Z,60.31
2023-02-06T18:04:44.055Z,60.56
2023-02-06T18:07:10.060Z,60.53
2023-02-06T18:09:36.051Z,60.83
2023-02-06T18:12:02.066Z,61.01
2023-02-06T18:14:27.994Z,61.05
2023-02-06T18:16:53.931Z,61.21
2023-02-06T18:19:24.119Z,61.40
2023-02-06T18:21:50.310Z,61.54
2023-02-06T18:24:16.426Z,61.70
2023-02-06T18:26:42.523Z,61.63
2023-02-06T18:29:08.452Z,61.62
2023-02-06T18:31:35.258Z,61.47
2023-02-06T18:34:02.680Z,61.70
2023-02-06T18:36:29.241Z,61.67
2023-02-06T18:38:55.849Z,61.92
2023-02-06T18:44:41.237Z,61.97
2023-02-06T18:47:10.025Z,61.92
2023-02-06T18:49:37.972Z,61.94
2023-02-06T18:52:04.720Z,62.14
2023-02-06T18:54:31.554Z,62.07
2023-02-06T18:57:01.071Z,62.13
2023-02-06T18:59:27.211Z,62.23
2023-02-06T19:02:19.325Z,62.41
2023-02-06T19:04:45.540Z,62.49
2023-02-06T19:07:11.689Z,62.56
2023-02-06T19:09:38.134Z,62.69
2023-02-06T19:12:04.630Z,62.78
2023-02-06T19:14:31.184Z,62.82
2023-02-06T19:16:57.880Z,62.72
2023-02-06T19:19:27.179Z,62.89
2023-02-06T19:21:53.202Z,62.90
2023-02-06T19:24:19.140Z,63.06
2023-02-06T19:26:45.220Z,62.99
2023-02-06T19:29:17.604Z,63.14
2023-02-06T19:31:45.628Z,63.23
2023-02-06T19:34:11.742Z,63.17
2023-02-06T19:36:37.890Z,63.27
2023-02-06T19:39:06.085Z,63.39
2023-02-06T19:41:32.665Z,63.41
2023-02-06T19:44:02.617Z,63.51
2023-02-06T19:46:28.936Z,63.59
2023-02-06T19:48:55.217Z,63.69
2023-02-06T19:51:24.465Z,63.89
2023-02-06T19:53:50.864Z,63.89
2023-02-06T19:56:22.651Z,64.14
2023-02-06T19:58:53.378Z,64.03
2023-02-06T20:01:19.342Z,64.02
2023-02-06T20:06:27.310Z,64.05
2023-02-06T20:08:53.898Z,63.92
2023-02-06T20:11:21.000Z,64.15
2023-02-06T20:13:51.642Z,64.11
2023-02-06T20:16:19.803Z,64.08
2023-02-06T20:18:45.912Z,64.21
2023-02-06T20:21:19.582Z,64.20
2023-02-06T20:23:45.685Z,64.33
2023-02-06T20:26:11.960Z,64.44
2023-02-06T20:28:37.875Z,64.42
2023-02-06T20:31:08.993Z,64.50
2023-02-06T20:33:37.901Z,64.38
2023-02-06T20:36:06.004Z,64.47
2023-02-06T20:38:31.949Z,64.43
2023-02-06T20:40:57.868Z,64.54
2023-02-06T20:43:23.763Z,64.64
2023-02-06T20:45:49.746Z,64.69
2023-02-06T20:48:15.659Z,64.61
2023-02-06T20:50:42.175Z,64.63
2023-02-06T20:53:08.129Z,64.56
2023-02-06T20:55:34.046Z,64.68
2023-02-06T20:57:59.979Z,64.63
2023-02-06T21:00:25.875Z,64.62
2023-02-06T21:02:53.177Z,64.60
2023-02-06T21:05:19.613Z,64.54
2023-02-06T21:07:45.538Z,64.23
2023-02-06T21:10:11.449Z,64.36
2023-02-06T21:12:37.387Z,64.46
2023-02-06T21:15:03.645Z,64.47
2023-02-06T21:17:29.593Z,64.67
2023-02-06T21:19:55.500Z,64.74
2023-02-06T21:22:21.451Z,64.68
2023-02-06T21:24:47.377Z,64.89
2023-02-06T21:27:13.325Z,65.05
2023-02-06T21:29:39.364Z,64.91
2023-02-06T21:32:13.752Z,65.08
2023-02-06T21:34:40.712Z,65.23
2023-02-06T21:37:06.640Z,65.18
2023-02-06T21:39:32.609Z,65.04
2023-02-06T21:41:59.819Z,65.13
2023-02-06T21:44:25.943Z,65.18
2023-02-06T21:46:52.022Z,64.93
2023-02-06T21:49:18.476Z,65.03
2023-02-06T21:51:44.841Z,65.09
2023-02-06T21:54:10.886Z,65.07
2023-02-06T21:56:39.954Z,65.06
2023-02-06T21:59:06.333Z,65.10
2023-02-06T22:01:32.933Z,65.13
2023-02-06T22:03:59.256Z,65.22
2023-02-06T22:06:25.907Z,65.29
2023-02-06T22:08:53.555Z,65.43
2023-02-06T22:11:27.064Z,65.49
2023-02-06T22:13:56.775Z,65.63
2023-02-06T22:16:23.024Z,65.73
2023-02-06T22:18:49.113Z,65.73
2023-02-06T22:21:16.642Z,65.77
2023-02-06T22:23:43.017Z,65.58
2023-02-06T22:26:09.860Z,65.33
2023-02-06T22:28:36.115Z,65.41
2023-02-06T22:31:10.145Z,65.22
2023-02-06T22:33:36.159Z,65.32
2023-02-06T22:36:13.817Z,65.22
2023-02-06T22:38:40.568Z,65.20
2023-02-06T22:41:08.308Z,65.18
2023-02-06T22:43:35.765Z,65.13
2023-02-06T22:46:02.083Z,65.17
2023-02-06T22:48:28.077Z,65.15
2023-02-06T22:50:54.137Z,65.18
2023-02-06T22:53:29.572Z,65.23
2023-02-06T22:56:18.803Z,65.18
2023-02-06T22:58:44.914Z,65.06
2023-02-06T23:01:10.952Z,65.03
2023-02-06T23:03:37.011Z,65.19
2023-02-06T23:06:04.059Z,65.39
2023-02-06T23:08:30.052Z,65.45
2023-02-06T23:10:56.104Z,65.33
2023-02-06T23:13:22.127Z,65.39
2023-02-06T23:15:48.546Z,65.61
2023-02-06T23:18:14.603Z,65.57
2023-02-06T23:20:40.530Z,65.62
2023-02-06T23:23:06.430Z,65.68
2023-02-06T23:25:32.378Z,65.76
2023-02-06T23:27:58.282Z,65.78
2023-02-06T23:30:24.400Z,65.87
2023-02-06T23:32:50.389Z,65.93
2023-02-06T23:35:16.990Z,65.89
2023-02-06T23:37:42.901Z,65.75
2023-02-06T23:40:09.297Z,65.70
2023-02-06T23:42:35.209Z,65.61
2023-02-06T23:45:01.152Z,65.70
2023-02-06T23:47:27.059Z,65.74
2023-02-06T23:49:52.954Z,65.85
2023-02-06T23:52:18.910Z,65.89
2023-02-06T23:54:44.815Z,65.85
2023-02-06T23:57:10.732Z,65.94
2023-02-06T23:59:36.663Z,66.02
